sensor_id;sensor_type;location;lat;lon;timestamp;P1;P2;P0
78999;PMS7003;68406;53.914;27.416;2023-07-20T00:00:58;5.1;4.6;3.9
78999;PMS7003;68406;53.914;27.416;2023-07-20T00:05:42;4.9;4.5;3.8
78999;PMS7003;68406;53.914;27.416;2023-07-20T00:10:36;5.4;4.6;3.9
78999;PMS7003;68406;53.914;27.416;2023-07-20T00:15:30;4.7;3.9;3.4
78999;PMS7003;68406;53.914;27.416;2023-07-20T00:20:16;4.5;3.9;3.4
78999;PMS7003;68406;53.914;27.416;2023-07-20T00:25:22;4.4;4.1;3.5
78999;PMS7003;68406;53.914;27.416;2023-07-20T00:30:16;5.3;4.3;3.9
78999;PMS7003;68406;53.914;27.416;2023-07-20T00:35:58;4.4;3.5;3
78999;PMS7003;68406;53.914;27.416;2023-07-20T00:40:44;3.8;3.4;2.9
78999;PMS7003;68406;53.914;27.416;2023-07-20T00:45:50;4.3;3.9;3.4
78999;PMS7003;68406;53.914;27.416;2023-07-20T00:50:28;5.2;4.6;3.8
78999;PMS7003;68406;53.914;27.416;2023-07-20T00:55:22;5;4.5;3.8
78999;PMS7003;68406;53.914;27.416;2023-07-20T01:00:58;5;4.5;3.8
78999;PMS7003;68406;53.914;27.416;2023-07-20T01:05:23;5.3;4.4;3.8
78999;PMS7003;68406;53.914;27.416;2023-07-20T01:10:17;4.8;4.2;3.6
78999;PMS7003;68406;53.914;27.416;2023-07-20T01:15:30;5.6;4.8;4.2
78999;PMS7003;68406;53.914;27.416;2023-07-20T01:20:59;4.7;4.5;3.8
78999;PMS7003;68406;53.914;27.416;2023-07-20T01:25:29;4.8;4.4;3.6
78999;PMS7003;68406;53.914;27.416;2023-07-20T01:30:33;5;4.5;3.8
78999;PMS7003;68406;53.914;27.416;2023-07-20T01:35:44;4.8;4.1;3.6
78999;PMS7003;68406;53.914;27.416;2023-07-20T01:40:22;4.9;4.6;4.1
78999;PMS7003;68406;53.914;27.416;2023-07-20T01:45:28;5.8;5;4.3
78999;PMS7003;68406;53.914;27.416;2023-07-20T01:50:34;5.7;4.9;3.9
78999;PMS7003;68406;53.914;27.416;2023-07-20T01:55:58;5.3;4.7;3.9
78999;PMS7003;68406;53.914;27.416;2023-07-20T02:00:16;5.3;4.8;4
78999;PMS7003;68406;53.914;27.416;2023-07-20T02:05:22;5;4.8;4.1
78999;PMS7003;68406;53.914;27.416;2023-07-20T02:10:50;5.2;4.8;4.2
78999;PMS7003;68406;53.914;27.416;2023-07-20T02:15:38;5.6;4.8;4
78999;PMS7003;68406;53.914;27.416;2023-07-20T02:20:38;5.6;4.8;4.2
78999;PMS7003;68406;53.914;27.416;2023-07-20T02:25:22;5.9;5.1;4.3
78999;PMS7003;68406;53.914;27.416;2023-07-20T02:30:42;5.7;5.2;4.4
78999;PMS7003;68406;53.914;27.416;2023-07-20T02:35:36;6;5.4;4.7
78999;PMS7003;68406;53.914;27.416;2023-07-20T02:40:50;6.1;5.3;4.8
78999;PMS7003;68406;53.914;27.416;2023-07-20T02:45:56;6;5.7;4.9
78999;PMS7003;68406;53.914;27.416;2023-07-20T02:50:36;6.8;6;5
78999;PMS7003;68406;53.914;27.416;2023-07-20T02:55:28;6.7;6;5.1
78999;PMS7003;68406;53.914;27.416;2023-07-20T03:00:32;7.7;6.8;6
78999;PMS7003;68406;53.914;27.416;2023-07-20T03:05:32;6.5;5.7;5.2
78999;PMS7003;68406;53.914;27.416;2023-07-20T03:10:16;6.2;5.9;5.1
78999;PMS7003;68406;53.914;27.416;2023-07-20T03:15:58;7.2;6.6;5.6
78999;PMS7003;68406;53.914;27.416;2023-07-20T03:20:16;7.6;6.8;5.8
78999;PMS7003;68406;53.914;27.416;2023-07-20T03:25:36;7.3;6.6;5.7
78999;PMS7003;68406;53.914;27.416;2023-07-20T03:30:58;7.7;6.9;6.1
78999;PMS7003;68406;53.914;27.416;2023-07-20T03:35:44;8.8;7.3;5.9
78999;PMS7003;68406;53.914;27.416;2023-07-20T03:40:22;8.2;7.2;6.3
78999;PMS7003;68406;53.914;27.416;2023-07-20T03:45:48;8.5;8.1;6.8
78999;PMS7003;68406;53.914;27.416;2023-07-20T03:50:58;7.7;7;5.8
78999;PMS7003;68406;53.914;27.416;2023-07-20T03:55:58;7.2;6.6;5.5
78999;PMS7003;68406;53.914;27.416;2023-07-20T04:00:58;7.9;6.9;5.7
78999;PMS7003;68406;53.914;27.416;2023-07-20T04:05:42;7.4;6.6;5.7
78999;PMS7003;68406;53.914;27.416;2023-07-20T04:10:22;7.5;6.4;5.6
78999;PMS7003;68406;53.914;27.416;2023-07-20T04:15:22;6.9;6.2;5.1
78999;PMS7003;68406;53.914;27.416;2023-07-20T04:20:50;8.6;7.7;6.7
78999;PMS7003;68406;53.914;27.416;2023-07-20T04:25:58;9.4;8.1;7
78999;PMS7003;68406;53.914;27.416;2023-07-20T04:30:44;11.5;10.3;8.4
78999;PMS7003;68406;53.914;27.416;2023-07-20T04:35:50;10;9.1;7.8
78999;PMS7003;68406;53.914;27.416;2023-07-20T04:40:58;8.8;7.8;6.8
78999;PMS7003;68406;53.914;27.416;2023-07-20T04:45:42;9;8.7;7.2
78999;PMS7003;68406;53.914;27.416;2023-07-20T04:50:16;9;8.8;7.6
78999;PMS7003;68406;53.914;27.416;2023-07-20T04:55:48;9;7.7;6.8
78999;PMS7003;68406;53.914;27.416;2023-07-20T05:00:58;9;8.4;7
78999;PMS7003;68406;53.914;27.416;2023-07-20T05:05:42;8.1;7.6;6.5
78999;PMS7003;68406;53.914;27.416;2023-07-20T05:10:48;8.7;8.2;6.9
78999;PMS7003;68406;53.914;27.416;2023-07-20T05:15:16;8;7.6;6.6
78999;PMS7003;68406;53.914;27.416;2023-07-20T05:20:16;8.3;7.5;6.4
78999;PMS7003;68406;53.914;27.416;2023-07-20T05:25:58;7.6;7;5.9
78999;PMS7003;68406;53.914;27.416;2023-07-20T05:30:22;8.8;8;7
78999;PMS7003;68406;53.914;27.416;2023-07-20T05:35:28;8.5;8;6.9
78999;PMS7003;68406;53.914;27.416;2023-07-20T05:40:24;8.4;7.8;6.7
78999;PMS7003;68406;53.914;27.416;2023-07-20T05:45:58;11.3;10.3;8.6
78999;PMS7003;68406;53.914;27.416;2023-07-20T05:50:16;10.5;9.5;7.9
78999;PMS7003;68406;53.914;27.416;2023-07-20T05:55:16;9.3;8.7;7.3
78999;PMS7003;68406;53.914;27.416;2023-07-20T06:00:46;8.7;7.9;6.8
78999;PMS7003;68406;53.914;27.416;2023-07-20T06:05:16;6.8;6.7;5.8
78999;PMS7003;68406;53.914;27.416;2023-07-20T06:10:16;7.5;6.8;5.8
78999;PMS7003;68406;53.914;27.416;2023-07-20T06:15:34;7.7;6.8;6
78999;PMS7003;68406;53.914;27.416;2023-07-20T06:20:58;6.5;5.9;5.2
78999;PMS7003;68406;53.914;27.416;2023-07-20T06:25:36;6.3;5.5;4.8
78999;PMS7003;68406;53.914;27.416;2023-07-20T06:30:59;5.7;5.4;4.7
78999;PMS7003;68406;53.914;27.416;2023-07-20T06:35:58;5.1;4.9;4.2
78999;PMS7003;68406;53.914;27.416;2023-07-20T06:40:45;5.2;4.8;4.1
78999;PMS7003;68406;53.914;27.416;2023-07-20T06:45:16;4.9;4.5;4
78999;PMS7003;68406;53.914;27.416;2023-07-20T06:50:34;5.5;5.1;4.3
78999;PMS7003;68406;53.914;27.416;2023-07-20T06:55:42;5.5;5;4.3
78999;PMS7003;68406;53.914;27.416;2023-07-20T07:00:22;5.6;5.3;4.5
78999;PMS7003;68406;53.914;27.416;2023-07-20T07:05:36;5.1;4.8;4.2
78999;PMS7003;68406;53.914;27.416;2023-07-20T07:10:50;6.4;5.5;4.5
78999;PMS7003;68406;53.914;27.416;2023-07-20T07:15:42;4.7;4.4;4
78999;PMS7003;68406;53.914;27.416;2023-07-20T07:20:46;4.7;4.4;3.7
78999;PMS7003;68406;53.914;27.416;2023-07-20T07:25:16;4.2;3.9;3.4
78999;PMS7003;68406;53.914;27.416;2023-07-20T07:30:16;5.1;4.7;4.1
78999;PMS7003;68406;53.914;27.416;2023-07-20T07:35:28;5.3;4.6;4
78999;PMS7003;68406;53.914;27.416;2023-07-20T07:40:58;5.2;4.8;4.2
78999;PMS7003;68406;53.914;27.416;2023-07-20T07:45:28;4.2;4;3.5
78999;PMS7003;68406;53.914;27.416;2023-07-20T07:50:42;3.8;3.4;3
78999;PMS7003;68406;53.914;27.416;2023-07-20T07:55:58;3.9;3.6;3
78999;PMS7003;68406;53.914;27.416;2023-07-20T08:00:36;4;3.7;3.3
78999;PMS7003;68406;53.914;27.416;2023-07-20T08:05:40;4;3.7;3.1
78999;PMS7003;68406;53.914;27.416;2023-07-20T08:10:52;3.4;3.3;2.9
78999;PMS7003;68406;53.914;27.416;2023-07-20T08:15:58;3.8;3.1;2.6
78999;PMS7003;68406;53.914;27.416;2023-07-20T08:20:58;3.8;3.2;2.8
78999;PMS7003;68406;53.914;27.416;2023-07-20T08:25:56;3.7;3.1;2.6
78999;PMS7003;68406;53.914;27.416;2023-07-20T08:30:58;3.1;3.1;2.8
78999;PMS7003;68406;53.914;27.416;2023-07-20T08:35:32;2.6;2.3;2
78999;PMS7003;68406;53.914;27.416;2023-07-20T08:40:16;3.9;3;2.6
78999;PMS7003;68406;53.914;27.416;2023-07-20T08:45:50;3.1;2.9;2.6
78999;PMS7003;68406;53.914;27.416;2023-07-20T08:50:58;3.5;3.1;2.7
78999;PMS7003;68406;53.914;27.416;2023-07-20T08:55:44;2.9;2.5;2
78999;PMS7003;68406;53.914;27.416;2023-07-20T09:00:50;2.5;2.3;1.9
78999;PMS7003;68406;53.914;27.416;2023-07-20T10:00:30;2.5;2.3;2
78999;PMS7003;68406;53.914;27.416;2023-07-20T10:05:46;2.5;1.9;1.7
78999;PMS7003;68406;53.914;27.416;2023-07-20T10:10:59;2.7;1.9;1.7
78999;PMS7003;68406;53.914;27.416;2023-07-20T10:15:36;2.4;2.4;2
78999;PMS7003;68406;53.914;27.416;2023-07-20T10:20:16;2.4;2;1.8
78999;PMS7003;68406;53.914;27.416;2023-07-20T10:25:44;3.1;2.6;2.3
78999;PMS7003;68406;53.914;27.416;2023-07-20T10:30:36;2.6;2.2;2
78999;PMS7003;68406;53.914;27.416;2023-07-20T10:35:22;2.5;2.2;2
78999;PMS7003;68406;53.914;27.416;2023-07-20T10:40:37;3.2;2.6;2.3
78999;PMS7003;68406;53.914;27.416;2023-07-20T10:45:58;2.9;2.6;2.3
78999;PMS7003;68406;53.914;27.416;2023-07-20T10:50:36;3.6;3.3;2.9
78999;PMS7003;68406;53.914;27.416;2023-07-20T10:56:05;3.1;3;2.4
78999;PMS7003;68406;53.914;27.416;2023-07-20T11:01:00;3.1;2.7;2.2
78999;PMS7003;68406;53.914;27.416;2023-07-20T11:05:32;3.4;2.8;2.3
78999;PMS7003;68406;53.914;27.416;2023-07-20T11:10:28;3.5;3.1;2.7
78999;PMS7003;68406;53.914;27.416;2023-07-20T11:15:16;3.1;3;2.6
78999;PMS7003;68406;53.914;27.416;2023-07-20T11:20:16;3.1;3;2.6
78999;PMS7003;68406;53.914;27.416;2023-07-20T11:25:22;3.8;3.5;3.1
78999;PMS7003;68406;53.914;27.416;2023-07-20T11:30:22;3.2;3;2.6
78999;PMS7003;68406;53.914;27.416;2023-07-20T11:35:41;2.9;2.8;2.5
78999;PMS7003;68406;53.914;27.416;2023-07-20T11:40:36;3.9;3.4;2.9
78999;PMS7003;68406;53.914;27.416;2023-07-20T11:45:42;2.7;2.5;2.1
78999;PMS7003;68406;53.914;27.416;2023-07-20T11:50:16;3.5;3.3;2.8
78999;PMS7003;68406;53.914;27.416;2023-07-20T11:55:28;4.1;3.6;3
78999;PMS7003;68406;53.914;27.416;2023-07-20T12:00:24;3.5;3.1;2.5
78999;PMS7003;68406;53.914;27.416;2023-07-20T12:06:05;2.6;2.4;2
78999;PMS7003;68406;53.914;27.416;2023-07-20T12:10:16;2.9;2.3;2
78999;PMS7003;68406;53.914;27.416;2023-07-20T12:15:42;3.7;3.1;2.7
78999;PMS7003;68406;53.914;27.416;2023-07-20T12:20:58;2.3;2.3;1.9
78999;PMS7003;68406;53.914;27.416;2023-07-20T12:25:50;3.1;2.7;2.4
78999;PMS7003;68406;53.914;27.416;2023-07-20T12:30:16;2.7;2.4;2
78999;PMS7003;68406;53.914;27.416;2023-07-20T12:35:48;2.8;2.5;2.2
78999;PMS7003;68406;53.914;27.416;2023-07-20T12:40:56;3.1;2.4;2
78999;PMS7003;68406;53.914;27.416;2023-07-20T12:45:58;2.6;2.2;1.8
78999;PMS7003;68406;53.914;27.416;2023-07-20T12:50:58;1.8;1.6;1.4
78999;PMS7003;68406;53.914;27.416;2023-07-20T12:55:58;2.4;2;1.8
78999;PMS7003;68406;53.914;27.416;2023-07-20T13:00:16;2.5;1.6;1.5
78999;PMS7003;68406;53.914;27.416;2023-07-20T13:05:16;1.5;1.5;1.2
78999;PMS7003;68406;53.914;27.416;2023-07-20T13:10:36;1.2;1.2;1
78999;PMS7003;68406;53.914;27.416;2023-07-20T13:15:58;1.3;1.1;0.9
78999;PMS7003;68406;53.914;27.416;2023-07-20T13:20:44;1.1;0.7;0.6
78999;PMS7003;68406;53.914;27.416;2023-07-20T13:25:50;0.7;0.6;0.6
78999;PMS7003;68406;53.914;27.416;2023-07-20T13:30:58;1.1;0.9;0.7
78999;PMS7003;68406;53.914;27.416;2023-07-20T13:35:28;0.6;0.4;0.4
78999;PMS7003;68406;53.914;27.416;2023-07-20T13:40:16;0.7;0.5;0.4
78999;PMS7003;68406;53.914;27.416;2023-07-20T13:45:30;1.5;0.9;0.8
78999;PMS7003;68406;53.914;27.416;2023-07-20T13:50:58;1.1;1.1;0.9
78999;PMS7003;68406;53.914;27.416;2023-07-20T13:55:38;1;1;0.7
78999;PMS7003;68406;53.914;27.416;2023-07-20T14:00:50;1.1;0.6;0.5
78999;PMS7003;68406;53.914;27.416;2023-07-20T14:05:34;0.8;0.6;0.6
78999;PMS7003;68406;53.914;27.416;2023-07-20T14:10:22;0.5;0.4;0.3
78999;PMS7003;68406;53.914;27.416;2023-07-20T14:15:44;1;1;0.9
78999;PMS7003;68406;53.914;27.416;2023-07-20T14:20:36;2;1.5;1.2
78999;PMS7003;68406;53.914;27.416;2023-07-20T14:25:42;1.8;1.5;1.4
78999;PMS7003;68406;53.914;27.416;2023-07-20T14:30:44;1.9;1.5;1.3
78999;PMS7003;68406;53.914;27.416;2023-07-20T14:35:58;1.5;1.2;0.9
78999;PMS7003;68406;53.914;27.416;2023-07-20T14:40:16;1.3;1.3;1
78999;PMS7003;68406;53.914;27.416;2023-07-20T14:45:28;1.8;1.7;1.5
78999;PMS7003;68406;53.914;27.416;2023-07-20T14:50:24;1.2;1.1;0.8
78999;PMS7003;68406;53.914;27.416;2023-07-20T14:55:36;1.1;0.7;0.6
78999;PMS7003;68406;53.914;27.416;2023-07-20T15:00:22;0.6;0.5;0.4
78999;PMS7003;68406;53.914;27.416;2023-07-20T15:05:34;1.4;1.1;1
78999;PMS7003;68406;53.914;27.416;2023-07-20T15:10:24;1.2;1.1;0.9
78999;PMS7003;68406;53.914;27.416;2023-07-20T15:15:16;1;0.9;0.8
78999;PMS7003;68406;53.914;27.416;2023-07-20T15:20:36;1;0.9;0.8
78999;PMS7003;68406;53.914;27.416;2023-07-20T15:25:46;1.3;0.9;0.6
78999;PMS7003;68406;53.914;27.416;2023-07-20T15:30:30;1;0.8;0.7
78999;PMS7003;68406;53.914;27.416;2023-07-20T15:35:28;1.5;1.3;1.2
78999;PMS7003;68406;53.914;27.416;2023-07-20T15:40:26;2.1;1.5;1.1
78999;PMS7003;68406;53.914;27.416;2023-07-20T15:45:28;1.7;1.2;1
78999;PMS7003;68406;53.914;27.416;2023-07-20T15:50:22;1.5;1.5;1.3
78999;PMS7003;68406;53.914;27.416;2023-07-20T15:55:36;0.8;0.6;0.5
78999;PMS7003;68406;53.914;27.416;2023-07-20T16:00:52;0.9;0.8;0.8
78999;PMS7003;68406;53.914;27.416;2023-07-20T16:05:36;1.5;1.1;1
78999;PMS7003;68406;53.914;27.416;2023-07-20T16:10:36;2.2;2;1.6
78999;PMS7003;68406;53.914;27.416;2023-07-20T16:15:34;1.8;1.4;1
78999;PMS7003;68406;53.914;27.416;2023-07-20T16:20:34;1.2;1.1;0.9
78999;PMS7003;68406;53.914;27.416;2023-07-20T16:25:22;2.2;1.5;1.1
78999;PMS7003;68406;53.914;27.416;2023-07-20T16:30:58;1.9;1.8;1.5
78999;PMS7003;68406;53.914;27.416;2023-07-20T16:35:22;1.4;1.2;1.1
78999;PMS7003;68406;53.914;27.416;2023-07-20T16:40:42;2;1.5;1.3
78999;PMS7003;68406;53.914;27.416;2023-07-20T16:45:59;1.7;1.4;1.1
78999;PMS7003;68406;53.914;27.416;2023-07-20T16:50:50;1.4;1.1;0.9
78999;PMS7003;68406;53.914;27.416;2023-07-20T16:55:26;2.7;2.1;1.8
78999;PMS7003;68406;53.914;27.416;2023-07-20T17:25:28;0.6;0.4;0.3
78999;PMS7003;68406;53.914;27.416;2023-07-20T17:30:16;1;0.4;0.3
78999;PMS7003;68406;53.914;27.416;2023-07-20T17:35:50;1;0.4;0.2
78999;PMS7003;68406;53.914;27.416;2023-07-20T17:40:57;0.9;0.6;0.4
78999;PMS7003;68406;53.914;27.416;2023-07-20T17:45:58;0.6;0.5;0.4
78999;PMS7003;68406;53.914;27.416;2023-07-20T17:50:50;1;0.8;0.7
78999;PMS7003;68406;53.914;27.416;2023-07-20T17:55:58;1.6;1.4;1.2
78999;PMS7003;68406;53.914;27.416;2023-07-20T18:00:16;1.7;1.5;1.2
78999;PMS7003;68406;53.914;27.416;2023-07-20T18:05:22;1.8;1.3;1.1
78999;PMS7003;68406;53.914;27.416;2023-07-20T18:10:16;1.4;1.1;0.8
78999;PMS7003;68406;53.914;27.416;2023-07-20T18:15:58;1.7;1.3;1.2
78999;PMS7003;68406;53.914;27.416;2023-07-20T18:20:44;4.9;3.9;2.8
78999;PMS7003;68406;53.914;27.416;2023-07-20T18:25:50;2.6;2;1.8
78999;PMS7003;68406;53.914;27.416;2023-07-20T18:30:34;2.3;2;1.7
78999;PMS7003;68406;53.914;27.416;2023-07-20T18:35:16;1.8;1.7;1.5
78999;PMS7003;68406;53.914;27.416;2023-07-20T18:40:58;2.2;2;1.7
78999;PMS7003;68406;53.914;27.416;2023-07-20T18:45:36;2.7;2.3;2
78999;PMS7003;68406;53.914;27.416;2023-07-20T18:50:28;2.2;1.8;1.5
78999;PMS7003;68406;53.914;27.416;2023-07-20T18:55:50;2.7;2;1.7
78999;PMS7003;68406;53.914;27.416;2023-07-20T19:00:58;2.9;2.1;1.7
78999;PMS7003;68406;53.914;27.416;2023-07-20T19:05:16;2.3;2.2;2
78999;PMS7003;68406;53.914;27.416;2023-07-20T19:10:16;2.4;2;1.7
78999;PMS7003;68406;53.914;27.416;2023-07-20T19:15:58;2.7;2.2;1.7
78999;PMS7003;68406;53.914;27.416;2023-07-20T19:20:44;7.1;6.1;4.3
78999;PMS7003;68406;53.914;27.416;2023-07-20T19:25:28;2.6;1.7;1.4
78999;PMS7003;68406;53.914;27.416;2023-07-20T19:30:22;1.7;1.6;1.2
78999;PMS7003;68406;53.914;27.416;2023-07-20T19:35:30;1.9;1.4;1.1
78999;PMS7003;68406;53.914;27.416;2023-07-20T19:40:36;1.5;1.4;1.2
78999;PMS7003;68406;53.914;27.416;2023-07-20T19:45:36;1.7;1.4;1.2
78999;PMS7003;68406;53.914;27.416;2023-07-20T19:50:58;1.9;1.5;1.3
78999;PMS7003;68406;53.914;27.416;2023-07-20T19:55:42;2.1;1.8;1.4
78999;PMS7003;68406;53.914;27.416;2023-07-20T20:00:16;2.6;2.2;1.8
78999;PMS7003;68406;53.914;27.416;2023-07-20T20:05:58;2.9;2.6;2.2
78999;PMS7003;68406;53.914;27.416;2023-07-20T20:10:35;2.7;2;1.7
78999;PMS7003;68406;53.914;27.416;2023-07-20T20:15:29;2;1.5;1.3
78999;PMS7003;68406;53.914;27.416;2023-07-20T20:20:36;2.1;1.5;1.3
78999;PMS7003;68406;53.914;27.416;2023-07-20T20:25:50;2.1;1.8;1.4
78999;PMS7003;68406;53.914;27.416;2023-07-20T20:30:30;1.9;1.5;1.2
78999;PMS7003;68406;53.914;27.416;2023-07-20T20:35:36;1.7;1.5;1.2
78999;PMS7003;68406;53.914;27.416;2023-07-20T20:40:34;2.3;1.7;1.3
78999;PMS7003;68406;53.914;27.416;2023-07-20T20:45:22;1.4;1.3;1.1
78999;PMS7003;68406;53.914;27.416;2023-07-20T20:50:16;2;1.6;1.3
78999;PMS7003;68406;53.914;27.416;2023-07-20T20:55:58;2.1;1.6;1.3
78999;PMS7003;68406;53.914;27.416;2023-07-20T21:00:28;1.8;1.4;1.1
78999;PMS7003;68406;53.914;27.416;2023-07-20T21:05:42;2.4;1.8;1.6
78999;PMS7003;68406;53.914;27.416;2023-07-20T21:10:58;3.2;2.5;2.2
78999;PMS7003;68406;53.914;27.416;2023-07-20T21:15:50;2.6;2.2;1.9
78999;PMS7003;68406;53.914;27.416;2023-07-20T21:20:16;2.8;2.1;1.8
78999;PMS7003;68406;53.914;27.416;2023-07-20T21:25:50;2.6;2.2;1.8
78999;PMS7003;68406;53.914;27.416;2023-07-20T21:31:00;2.3;1.9;1.6
78999;PMS7003;68406;53.914;27.416;2023-07-20T21:35:58;2.6;2.3;1.9
78999;PMS7003;68406;53.914;27.416;2023-07-20T21:40:58;2.5;2.2;1.8
78999;PMS7003;68406;53.914;27.416;2023-07-20T21:45:56;2.2;1.7;1.4
78999;PMS7003;68406;53.914;27.416;2023-07-20T21:50:28;2.8;2.2;2
78999;PMS7003;68406;53.914;27.416;2023-07-20T21:55:16;2.6;2;1.6
78999;PMS7003;68406;53.914;27.416;2023-07-20T22:00:18;2.5;2.2;1.7
78999;PMS7003;68406;53.914;27.416;2023-07-20T22:06:01;3;2.7;2.2
78999;PMS7003;68406;53.914;27.416;2023-07-20T22:11:03;2.1;1.9;1.7
78999;PMS7003;68406;53.914;27.416;2023-07-20T22:15:50;2.5;2.3;1.9
78999;PMS7003;68406;53.914;27.416;2023-07-20T22:20:52;2.1;2.1;1.8
78999;PMS7003;68406;53.914;27.416;2023-07-20T22:25:22;2.5;2.1;1.7
78999;PMS7003;68406;53.914;27.416;2023-07-20T22:30:22;2;2;1.5
78999;PMS7003;68406;53.914;27.416;2023-07-20T22:35:30;3;2.5;2
78999;PMS7003;68406;53.914;27.416;2023-07-20T22:40:58;2.6;2.6;2
78999;PMS7003;68406;53.914;27.416;2023-07-20T22:45:44;2.9;2.5;2.1
78999;PMS7003;68406;53.914;27.416;2023-07-20T22:50:58;2.5;2.3;2.1
78999;PMS7003;68406;53.914;27.416;2023-07-20T22:55:16;3;2.5;2.1
78999;PMS7003;68406;53.914;27.416;2023-07-20T23:00:17;2.6;2.1;1.8
78999;PMS7003;68406;53.914;27.416;2023-07-20T23:05:44;2.7;2.1;1.7
78999;PMS7003;68406;53.914;27.416;2023-07-20T23:10:17;3.3;2.4;1.9
78999;PMS7003;68406;53.914;27.416;2023-07-20T23:15:16;2.7;2.4;2.3
78999;PMS7003;68406;53.914;27.416;2023-07-20T23:20:34;2.7;2.3;2
78999;PMS7003;68406;53.914;27.416;2023-07-20T23:25:58;2.8;2.4;2.2
78999;PMS7003;68406;53.914;27.416;2023-07-20T23:30:36;2.8;2.5;2.2
78999;PMS7003;68406;53.914;27.416;2023-07-20T23:35:36;2.6;2.3;1.9
78999;PMS7003;68406;53.914;27.416;2023-07-20T23:40:58;2.8;2.1;1.9
78999;PMS7003;68406;53.914;27.416;2023-07-20T23:45:18;3.2;2.7;2.2
78999;PMS7003;68406;53.914;27.416;2023-07-20T23:50:16;3;2.6;2.2
78999;PMS7003;68406;53.914;27.416;2023-07-20T23:55:28;3.1;2.4;2
